sensor_id;sensor_type;location;lat;lon;timestamp;pressure;altitude;pressure_sealevel;temperature;humidity
70943;BME280;59154;51.970;5.650;2022-07-29T00:00:05;101800;;;17.03127;67.5
70943;BME280;59154;51.970;5.650;2022-07-29T00:05:03;101800;;;16.89395;68.8
70943;BME280;59154;51.970;5.650;2022-07-29T00:10:04;101800;;;16.89903;68.1
70943;BME280;59154;51.970;5.650;2022-07-29T00:15:03;101800;;;16.90412;68.1
70943;BME280;59154;51.970;5.650;2022-07-29T00:20:04;101800;;;16.82274;68.4
70943;BME280;59154;51.970;5.650;2022-07-29T00:25:02;101800;;;16.78206;68.7
70943;BME280;59154;51.970;5.650;2022-07-29T00:30:03;101800;;;16.8024;68.7
70943;BME280;59154;51.970;5.650;2022-07-29T00:35:03;101800;;;16.70577;69.1
70943;BME280;59154;51.970;5.650;2022-07-29T00:40:04;101800;;;16.7312;69.1
70943;BME280;59154;51.970;5.650;2022-07-29T00:45:03;101700;;;16.59896;69.5
70943;BME280;59154;51.970;5.650;2022-07-29T00:50:04;101700;;;16.50233;69.9
70943;BME280;59154;51.970;5.650;2022-07-29T00:55:03;101700;;;16.50233;70.1
70943;BME280;59154;51.970;5.650;2022-07-29T01:00:05;101700;;;16.48199;70.1
70943;BME280;59154;51.970;5.650;2022-07-29T01:05:02;101700;;;16.48199;70.1
70943;BME280;59154;51.970;5.650;2022-07-29T01:10:04;101700;;;16.52776;70.2
70943;BME280;59154;51.970;5.650;2022-07-29T01:15:05;101700;;;16.42604;70.4
70943;BME280;59154;51.970;5.650;2022-07-29T01:20:09;101700;;;16.48707;70.3
70943;BME280;59154;51.970;5.650;2022-07-29T01:25:17;101700;;;16.35992;70.7
70943;BME280;59154;51.970;5.650;2022-07-29T01:30:04;101700;;;16.41078;70.6
70943;BME280;59154;51.970;5.650;2022-07-29T01:35:04;101700;;;16.4057;70.8
70943;BME280;59154;51.970;5.650;2022-07-29T01:40:04;101700;;;16.39044;70.5
70943;BME280;59154;51.970;5.650;2022-07-29T01:45:10;101700;;;16.51759;70.2
70943;BME280;59154;51.970;5.650;2022-07-29T01:50:07;101700;;;16.42095;70.5
70943;BME280;59154;51.970;5.650;2022-07-29T01:55:09;101700;;;16.35484;70.7
70943;BME280;59154;51.970;5.650;2022-07-29T02:00:05;101700;;;16.39553;70.6
70943;BME280;59154;51.970;5.650;2022-07-29T02:05:03;101800;;;16.4769;70.5
70943;BME280;59154;51.970;5.650;2022-07-29T02:10:03;101800;;;16.48199;70.8
70943;BME280;59154;51.970;5.650;2022-07-29T02:15:04;101800;;;16.3701;71.4
70943;BME280;59154;51.970;5.650;2022-07-29T02:20:04;101700;;;16.31415;72.8
70943;BME280;59154;51.970;5.650;2022-07-29T02:25:04;101700;;;15.92253;76.5
70943;BME280;59154;51.970;5.650;2022-07-29T02:30:04;101700;;;15.80556;77.2
70943;BME280;59154;51.970;5.650;2022-07-29T02:35:04;101700;;;15.63264;77.9
70943;BME280;59154;51.970;5.650;2022-07-29T02:40:04;101700;;;15.54618;79.4
70943;BME280;59154;51.970;5.650;2022-07-29T02:45:04;101700;;;15.57161;78.8
70943;BME280;59154;51.970;5.650;2022-07-29T02:50:06;101700;;;15.52584;79.5
70943;BME280;59154;51.970;5.650;2022-07-29T02:55:09;101700;;;15.44446;80.6
70943;BME280;59154;51.970;5.650;2022-07-29T03:00:07;101700;;;15.45972;80.5
70943;BME280;59154;51.970;5.650;2022-07-29T03:05:04;101700;;;15.15457;80.4
70943;BME280;59154;51.970;5.650;2022-07-29T03:10:04;101700;;;15.16982;80.8
70943;BME280;59154;51.970;5.650;2022-07-29T03:15:04;101700;;;15.12405;80.1
70943;BME280;59154;51.970;5.650;2022-07-29T03:20:03;101700;;;15.13422;80.5
70943;BME280;59154;51.970;5.650;2022-07-29T03:25:08;101700;;;15.11388;80.6
70943;BME280;59154;51.970;5.650;2022-07-29T03:30:03;101700;;;15.04268;80.3
70943;BME280;59154;51.970;5.650;2022-07-29T03:35:04;101700;;;14.93079;81.1
70943;BME280;59154;51.970;5.650;2022-07-29T03:40:07;101700;;;14.8901;80.9
70943;BME280;59154;51.970;5.650;2022-07-29T03:45:06;101700;;;14.86467;80.6
70943;BME280;59154;51.970;5.650;2022-07-29T03:50:06;101700;;;14.82399;80.4
70943;BME280;59154;51.970;5.650;2022-07-29T03:55:03;101700;;;14.8545;80.4
70943;BME280;59154;51.970;5.650;2022-07-29T04:05:02;101700;;;14.90027;81.0
70943;BME280;59154;51.970;5.650;2022-07-29T04:10:03;101700;;;14.8901;80.6
70943;BME280;59154;51.970;5.650;2022-07-29T04:15:02;101700;;;14.70193;81.1
70943;BME280;59154;51.970;5.650;2022-07-29T04:20:04;101700;;;14.61547;82.0
70943;BME280;59154;51.970;5.650;2022-07-29T04:25:03;101700;;;14.6409;82.4
70943;BME280;59154;51.970;5.650;2022-07-29T04:30:04;101700;;;14.68667;82.1
70943;BME280;59154;51.970;5.650;2022-07-29T04:35:02;101700;;;14.75787;81.2
70943;BME280;59154;51.970;5.650;2022-07-29T04:40:04;101700;;;14.79856;81.7
70943;BME280;59154;51.970;5.650;2022-07-29T04:45:04;101700;;;14.55952;82.1
70943;BME280;59154;51.970;5.650;2022-07-29T04:50:04;101700;;;14.63581;81.8
70943;BME280;59154;51.970;5.650;2022-07-29T04:55:04;101700;;;14.75787;82.1
70943;BME280;59154;51.970;5.650;2022-07-29T05:00:04;101700;;;14.69175;81.6
70943;BME280;59154;51.970;5.650;2022-07-29T05:05:03;101700;;;14.72736;81.9
70943;BME280;59154;51.970;5.650;2022-07-29T05:10:03;101700;;;14.68158;82.2
70943;BME280;59154;51.970;5.650;2022-07-29T05:15:03;101700;;;14.65107;82.5
70943;BME280;59154;51.970;5.650;2022-07-29T05:20:04;101700;;;14.68667;82.1
70943;BME280;59154;51.970;5.650;2022-07-29T05:25:02;101700;;;14.78839;82.1
70943;BME280;59154;51.970;5.650;2022-07-29T05:30:04;101700;;;14.83416;81.4
70943;BME280;59154;51.970;5.650;2022-07-29T05:35:03;101700;;;14.7833;81.9
70943;BME280;59154;51.970;5.650;2022-07-29T05:40:04;101700;;;14.94096;81.4
70943;BME280;59154;51.970;5.650;2022-07-29T05:45:03;101700;;;15.02233;81.1
70943;BME280;59154;51.970;5.650;2022-07-29T05:50:03;101700;;;15.19017;80.8
70943;BME280;59154;51.970;5.650;2022-07-29T05:55:02;101700;;;15.23085;80.4
70943;BME280;59154;51.970;5.650;2022-07-29T06:00:04;101700;;;15.20543;80.1
70943;BME280;59154;51.970;5.650;2022-07-29T06:05:03;101700;;;15.40886;80.5
70943;BME280;59154;51.970;5.650;2022-07-29T06:10:03;101800;;;15.54109;79.6
70943;BME280;59154;51.970;5.650;2022-07-29T06:15:03;101700;;;15.6479;79.3
70943;BME280;59154;51.970;5.650;2022-07-29T06:20:04;101700;;;15.69876;79.6
70943;BME280;59154;51.970;5.650;2022-07-29T06:25:03;101700;;;15.74453;78.4
70943;BME280;59154;51.970;5.650;2022-07-29T06:30:04;101700;;;15.76487;78.1
70943;BME280;59154;51.970;5.650;2022-07-29T06:35:03;101700;;;15.80556;78.1
70943;BME280;59154;51.970;5.650;2022-07-29T06:40:04;101700;;;15.81573;78.0
70943;BME280;59154;51.970;5.650;2022-07-29T06:45:03;101700;;;15.96831;78.1
70943;BME280;59154;51.970;5.650;2022-07-29T06:50:03;101700;;;16.13106;77.3
70943;BME280;59154;51.970;5.650;2022-07-29T06:55:04;101700;;;16.14123;76.6
70943;BME280;59154;51.970;5.650;2022-07-29T07:00:04;101700;;;16.30906;76.4
70943;BME280;59154;51.970;5.650;2022-07-29T07:05:03;101700;;;16.62948;75.5
70943;BME280;59154;51.970;5.650;2022-07-29T07:10:04;101700;;;16.41587;75.1
70943;BME280;59154;51.970;5.650;2022-07-29T07:15:03;101700;;;16.63456;75.2
70943;BME280;59154;51.970;5.650;2022-07-29T07:20:04;101700;;;16.66508;75.0
70943;BME280;59154;51.970;5.650;2022-07-29T07:25:03;101700;;;16.69051;75.3
70943;BME280;59154;51.970;5.650;2022-07-29T07:30:05;101700;;;16.49216;74.8
70943;BME280;59154;51.970;5.650;2022-07-29T07:35:03;101700;;;16.65491;75.1
70943;BME280;59154;51.970;5.650;2022-07-29T07:40:04;101700;;;16.81766;74.5
70943;BME280;59154;51.970;5.650;2022-07-29T07:45:02;101700;;;16.92446;74.5
70943;BME280;59154;51.970;5.650;2022-07-29T07:50:03;101700;;;16.97024;73.9
70943;BME280;59154;51.970;5.650;2022-07-29T07:55:03;101700;;;17.12282;73.2
70943;BME280;59154;51.970;5.650;2022-07-29T08:00:04;101700;;;17.35168;72.5
70943;BME280;59154;51.970;5.650;2022-07-29T08:05:02;101700;;;17.4534;72.0
70943;BME280;59154;51.970;5.650;2022-07-29T08:10:03;101700;;;17.4534;72.5
70943;BME280;59154;51.970;5.650;2022-07-29T08:15:03;101700;;;17.68736;71.6
70943;BME280;59154;51.970;5.650;2022-07-29T08:20:03;101700;;;17.93149;70.7
70943;BME280;59154;51.970;5.650;2022-07-29T08:25:03;101700;;;17.93149;71.1
70943;BME280;59154;51.970;5.650;2022-07-29T08:30:03;101700;;;18.22648;70.9
70943;BME280;59154;51.970;5.650;2022-07-29T08:35:02;101700;;;18.44518;70.0
70943;BME280;59154;51.970;5.650;2022-07-29T08:40:04;101700;;;18.50112;69.1
70943;BME280;59154;51.970;5.650;2022-07-29T08:45:03;101700;;;18.75034;68.4
70943;BME280;59154;51.970;5.650;2022-07-29T08:50:03;101700;;;19.03008;67.2
70943;BME280;59154;51.970;5.650;2022-07-29T08:55:02;101700;;;19.23861;67.8
70943;BME280;59154;51.970;5.650;2022-07-29T09:00:07;101700;;;19.17249;67.4
70943;BME280;59154;51.970;5.650;2022-07-29T09:05:04;101700;;;19.47765;67.4
70943;BME280;59154;51.970;5.650;2022-07-29T09:10:05;101700;;;19.30981;67.5
70943;BME280;59154;51.970;5.650;2022-07-29T09:15:03;101700;;;19.52851;66.3
70943;BME280;59154;51.970;5.650;2022-07-29T09:20:09;101700;;;19.6811;65.3
70943;BME280;59154;51.970;5.650;2022-07-29T09:25:03;101700;;;20.03713;66.0
70943;BME280;59154;51.970;5.650;2022-07-29T09:30:04;101700;;;19.99135;66.2
70943;BME280;59154;51.970;5.650;2022-07-29T09:35:20;101700;;;20.09307;65.0
70943;BME280;59154;51.970;5.650;2022-07-29T09:40:11;101700;;;20.25074;65.1
70943;BME280;59154;51.970;5.650;2022-07-29T09:45:03;101700;;;20.59152;63.3
70943;BME280;59154;51.970;5.650;2022-07-29T09:50:03;101700;;;20.89669;63.3
70943;BME280;59154;51.970;5.650;2022-07-29T09:55:05;101700;;;21.2985;63.0
70943;BME280;59154;51.970;5.650;2022-07-29T10:00:06;101700;;;21.39005;61.4
70943;BME280;59154;51.970;5.650;2022-07-29T10:05:05;101700;;;22.0004;60.0
70943;BME280;59154;51.970;5.650;2022-07-29T10:10:03;101700;;;21.54263;60.5
70943;BME280;59154;51.970;5.650;2022-07-29T10:15:03;101700;;;21.45617;60.4
70943;BME280;59154;51.970;5.650;2022-07-29T10:20:04;101700;;;21.77152;60.7
70943;BME280;59154;51.970;5.650;2022-07-29T10:25:03;101700;;;21.72574;57.5
70943;BME280;59154;51.970;5.650;2022-07-29T10:30:03;101700;;;21.86815;58.4
70943;BME280;59154;51.970;5.650;2022-07-29T10:35:18;101700;;;21.741;56.1
70943;BME280;59154;51.970;5.650;2022-07-29T10:40:11;101700;;;21.89867;56.6
70943;BME280;59154;51.970;5.650;2022-07-29T10:45:04;101700;;;22.02583;55.7
70943;BME280;59154;51.970;5.650;2022-07-29T10:50:04;101700;;;22.20893;55.9
70943;BME280;59154;51.970;5.650;2022-07-29T10:55:03;101700;;;21.94953;57.5
70943;BME280;59154;51.970;5.650;2022-07-29T11:00:27;101700;;;22.08178;56.4
70943;BME280;59154;51.970;5.650;2022-07-29T11:05:03;101700;;;22.32592;56.6
70943;BME280;59154;51.970;5.650;2022-07-29T11:10:35;101700;;;22.23436;56.8
70943;BME280;59154;51.970;5.650;2022-07-29T11:15:04;101700;;;22.51411;56.5
70943;BME280;59154;51.970;5.650;2022-07-29T11:20:38;101700;;;22.64127;56.2
70943;BME280;59154;51.970;5.650;2022-07-29T11:25:19;101700;;;22.99731;57.4
70943;BME280;59154;51.970;5.650;2022-07-29T11:30:04;101700;;;22.96679;55.6
70943;BME280;59154;51.970;5.650;2022-07-29T11:35:19;101700;;;22.75825;54.7
70943;BME280;59154;51.970;5.650;2022-07-29T11:40:19;101700;;;22.74808;55.1
70943;BME280;59154;51.970;5.650;2022-07-29T11:45:05;101700;;;23.16516;54.7
70943;BME280;59154;51.970;5.650;2022-07-29T11:50:05;101700;;;23.27705;53.9
70943;BME280;59154;51.970;5.650;2022-07-29T11:55:05;101700;;;23.32283;54.2
70943;BME280;59154;51.970;5.650;2022-07-29T12:00:06;101700;;;23.43982;53.6
70943;BME280;59154;51.970;5.650;2022-07-29T12:05:02;101700;;;23.66362;53.5
70943;BME280;59154;51.970;5.650;2022-07-29T12:10:04;101700;;;23.85181;53.5
70943;BME280;59154;51.970;5.650;2022-07-29T12:15:12;101700;;;24.10104;53.4
70943;BME280;59154;51.970;5.650;2022-07-29T12:20:05;101700;;;24.24346;52.7
70943;BME280;59154;51.970;5.650;2022-07-29T12:25:04;101700;;;24.28924;51.7
70943;BME280;59154;51.970;5.650;2022-07-29T12:30:05;101700;;;24.42657;52.1
70943;BME280;59154;51.970;5.650;2022-07-29T12:35:04;101700;;;24.54356;52.0
70943;BME280;59154;51.970;5.650;2022-07-29T12:40:05;101700;;;24.48252;51.9
70943;BME280;59154;51.970;5.650;2022-07-29T12:45:03;101700;;;25.02168;52.5
70943;BME280;59154;51.970;5.650;2022-07-29T12:50:13;101700;;;25.01659;51.0
70943;BME280;59154;51.970;5.650;2022-07-29T12:55:03;101700;;;25.01659;50.7
70943;BME280;59154;51.970;5.650;2022-07-29T13:00:05;101700;;;25.29635;50.0
70943;BME280;59154;51.970;5.650;2022-07-29T13:05:03;101700;;;25.05729;51.0
70943;BME280;59154;51.970;5.650;2022-07-29T13:10:13;101700;;;25.44385;50.1
70943;BME280;59154;51.970;5.650;2022-07-29T13:15:12;101700;;;25.48963;50.7
70943;BME280;59154;51.970;5.650;2022-07-29T13:20:07;101700;;;25.3879;51.3
70943;BME280;59154;51.970;5.650;2022-07-29T13:25:03;101700;;;24.76736;53.7
70943;BME280;59154;51.970;5.650;2022-07-29T13:30:05;101700;;;24.72158;53.8
70943;BME280;59154;51.970;5.650;2022-07-29T13:35:04;101700;;;24.76227;54.0
70943;BME280;59154;51.970;5.650;2022-07-29T13:40:04;101700;;;24.84874;53.0
70943;BME280;59154;51.970;5.650;2022-07-29T13:45:03;101700;;;25.4286;51.8
70943;BME280;59154;51.970;5.650;2022-07-29T13:50:04;101700;;;25.59645;51.1
70943;BME280;59154;51.970;5.650;2022-07-29T13:55:03;101700;;;25.79482;51.7
70943;BME280;59154;51.970;5.650;2022-07-29T14:00:04;101700;;;25.69309;51.9
70943;BME280;59154;51.970;5.650;2022-07-29T14:05:02;101700;;;26.1407;51.3
70943;BME280;59154;51.970;5.650;2022-07-29T14:10:03;101700;;;26.07966;50.6
70943;BME280;59154;51.970;5.650;2022-07-29T14:15:04;101700;;;26.00845;51.6
70943;BME280;59154;51.970;5.650;2022-07-29T14:20:04;101700;;;25.71344;51.7
70943;BME280;59154;51.970;5.650;2022-07-29T14:25:03;101700;;;25.90672;51.2
70943;BME280;59154;51.970;5.650;2022-07-29T14:30:03;101700;;;25.53032;52.1
70943;BME280;59154;51.970;5.650;2022-07-29T14:35:03;101700;;;25.688;52.0
70943;BME280;59154;51.970;5.650;2022-07-29T14:40:04;101700;;;25.73378;51.3
70943;BME280;59154;51.970;5.650;2022-07-29T14:45:03;101700;;;25.49981;51.6
70943;BME280;59154;51.970;5.650;2022-07-29T14:50:04;101700;;;25.34721;51.5
70943;BME280;59154;51.970;5.650;2022-07-29T14:55:03;101700;;;25.17427;52.0
70943;BME280;59154;51.970;5.650;2022-07-29T15:00:04;101700;;;25.12341;52.0
70943;BME280;59154;51.970;5.650;2022-07-29T15:05:02;101700;;;24.93521;52.2
70943;BME280;59154;51.970;5.650;2022-07-29T15:10:03;101700;;;24.80805;52.6
70943;BME280;59154;51.970;5.650;2022-07-29T15:15:03;101700;;;24.83348;52.8
70943;BME280;59154;51.970;5.650;2022-07-29T15:20:04;101700;;;25.34213;51.2
70943;BME280;59154;51.970;5.650;2022-07-29T15:25:03;101700;;;25.34213;51.0
70943;BME280;59154;51.970;5.650;2022-07-29T15:30:04;101700;;;25.18953;51.7
70943;BME280;59154;51.970;5.650;2022-07-29T15:35:03;101700;;;25.29635;50.3
70943;BME280;59154;51.970;5.650;2022-07-29T15:40:03;101700;;;26.08984;48.9
70943;BME280;59154;51.970;5.650;2022-07-29T15:45:03;101700;;;26.61883;47.4
70943;BME280;59154;51.970;5.650;2022-07-29T15:50:03;101700;;;27.09188;46.5
70943;BME280;59154;51.970;5.650;2022-07-29T15:55:02;101700;;;26.92911;46.8
70943;BME280;59154;51.970;5.650;2022-07-29T16:00:04;101700;;;27.02575;46.9
70943;BME280;59154;51.970;5.650;2022-07-29T16:05:03;101700;;;27.05627;47.0
70943;BME280;59154;51.970;5.650;2022-07-29T16:10:03;101700;;;27.18344;47.3
70943;BME280;59154;51.970;5.650;2022-07-29T16:15:03;101700;;;26.95454;47.8
70943;BME280;59154;51.970;5.650;2022-07-29T16:20:04;101700;;;27.13766;46.7
70943;BME280;59154;51.970;5.650;2022-07-29T16:25:03;101700;;;26.93928;47.5
70943;BME280;59154;51.970;5.650;2022-07-29T16:30:03;101700;;;26.93928;47.3
70943;BME280;59154;51.970;5.650;2022-07-29T16:35:03;101700;;;26.83247;49.3
70943;BME280;59154;51.970;5.650;2022-07-29T16:40:04;101700;;;26.75108;48.2
70943;BME280;59154;51.970;5.650;2022-07-29T16:45:03;101700;;;26.94437;47.8
70943;BME280;59154;51.970;5.650;2022-07-29T16:50:03;101700;;;26.81212;47.3
70943;BME280;59154;51.970;5.650;2022-07-29T16:55:03;101700;;;27.02067;46.8
70943;BME280;59154;51.970;5.650;2022-07-29T17:00:04;101700;;;27.06645;46.5
70943;BME280;59154;51.970;5.650;2022-07-29T17:05:03;101700;;;27.03084;46.6
70943;BME280;59154;51.970;5.650;2022-07-29T17:10:03;101700;;;26.55779;47.0
70943;BME280;59154;51.970;5.650;2022-07-29T17:15:03;101700;;;27.20378;46.4
70943;BME280;59154;51.970;5.650;2022-07-29T17:20:04;101700;;;26.99523;46.5
70943;BME280;59154;51.970;5.650;2022-07-29T17:25:04;101700;;;27.09697;46.0
70943;BME280;59154;51.970;5.650;2022-07-29T17:30:04;101700;;;26.87316;45.0
70943;BME280;59154;51.970;5.650;2022-07-29T17:35:03;101700;;;26.30347;45.4
70943;BME280;59154;51.970;5.650;2022-07-29T17:40:04;101700;;;26.33399;45.5
70943;BME280;59154;51.970;5.650;2022-07-29T17:45:03;101700;;;26.44589;45.4
70943;BME280;59154;51.970;5.650;2022-07-29T17:50:04;101700;;;26.81721;44.9
70943;BME280;59154;51.970;5.650;2022-07-29T17:55:02;101700;;;26.36451;45.0
70943;BME280;59154;51.970;5.650;2022-07-29T18:00:05;101700;;;26.2526;44.7
70943;BME280;59154;51.970;5.650;2022-07-29T18:05:04;101700;;;25.95759;45.4
70943;BME280;59154;51.970;5.650;2022-07-29T18:10:04;101700;;;25.688;46.1
70943;BME280;59154;51.970;5.650;2022-07-29T18:15:03;101700;;;25.58119;45.9
70943;BME280;59154;51.970;5.650;2022-07-29T18:20:03;101700;;;25.37773;46.6
70943;BME280;59154;51.970;5.650;2022-07-29T18:25:03;101700;;;25.18445;46.6
70943;BME280;59154;51.970;5.650;2022-07-29T18:30:04;101700;;;24.88943;47.0
70943;BME280;59154;51.970;5.650;2022-07-29T18:35:03;101700;;;24.47235;47.8
70943;BME280;59154;51.970;5.650;2022-07-29T18:40:03;101700;;;24.16208;48.8
70943;BME280;59154;51.970;5.650;2022-07-29T18:45:03;101700;;;23.67887;50.3
70943;BME280;59154;51.970;5.650;2022-07-29T18:50:04;101700;;;23.64836;50.8
70943;BME280;59154;51.970;5.650;2022-07-29T18:55:03;101700;;;23.55172;51.1
70943;BME280;59154;51.970;5.650;2022-07-29T19:00:04;101700;;;23.50085;51.4
70943;BME280;59154;51.970;5.650;2022-07-29T19:05:03;101700;;;23.333;52.2
70943;BME280;59154;51.970;5.650;2022-07-29T19:10:04;101700;;;23.09903;52.8
70943;BME280;59154;51.970;5.650;2022-07-29T19:15:03;101700;;;22.99731;53.3
70943;BME280;59154;51.970;5.650;2022-07-29T19:20:03;101700;;;22.90067;53.5
70943;BME280;59154;51.970;5.650;2022-07-29T19:25:03;101700;;;22.57006;54.8
70943;BME280;59154;51.970;5.650;2022-07-29T19:30:04;101800;;;22.52428;55.3
70943;BME280;59154;51.970;5.650;2022-07-29T19:35:03;101800;;;22.29031;56.0
70943;BME280;59154;51.970;5.650;2022-07-29T19:40:04;101800;;;22.24454;56.2
70943;BME280;59154;51.970;5.650;2022-07-29T19:45:03;101800;;;21.99022;56.8
70943;BME280;59154;51.970;5.650;2022-07-29T19:50:03;101800;;;21.78169;57.3
70943;BME280;59154;51.970;5.650;2022-07-29T19:55:04;101800;;;21.75626;57.6
70943;BME280;59154;51.970;5.650;2022-07-29T20:00:07;101800;;;21.61384;58.1
70943;BME280;59154;51.970;5.650;2022-07-29T20:05:03;101800;;;21.30867;59.4
70943;BME280;59154;51.970;5.650;2022-07-29T20:10:03;101800;;;21.13065;60.3
70943;BME280;59154;51.970;5.650;2022-07-29T20:15:03;101800;;;20.99332;61.0
70943;BME280;59154;51.970;5.650;2022-07-29T20:20:05;101800;;;20.88143;61.7
70943;BME280;59154;51.970;5.650;2022-07-29T20:25:03;101800;;;20.70341;62.9
70943;BME280;59154;51.970;5.650;2022-07-29T20:30:03;101800;;;20.58643;63.3
70943;BME280;59154;51.970;5.650;2022-07-29T20:35:03;101800;;;20.54574;63.9
70943;BME280;59154;51.970;5.650;2022-07-29T20:40:04;101800;;;20.48471;64.3
70943;BME280;59154;51.970;5.650;2022-07-29T20:45:02;101800;;;20.31686;65.3
70943;BME280;59154;51.970;5.650;2022-07-29T20:50:04;101800;;;20.22023;65.7
70943;BME280;59154;51.970;5.650;2022-07-29T20:55:03;101800;;;20.18462;66.0
70943;BME280;59154;51.970;5.650;2022-07-29T21:00:05;101800;;;20.0473;66.6
70943;BME280;59154;51.970;5.650;2022-07-29T21:05:03;101800;;;20.0473;66.9
70943;BME280;59154;51.970;5.650;2022-07-29T21:10:04;101800;;;19.85911;68.1
70943;BME280;59154;51.970;5.650;2022-07-29T21:15:03;101800;;;19.8642;68.4
70943;BME280;59154;51.970;5.650;2022-07-29T21:20:03;101800;;;19.6811;69.5
70943;BME280;59154;51.970;5.650;2022-07-29T21:25:03;101800;;;19.62006;70.4
70943;BME280;59154;51.970;5.650;2022-07-29T21:30:03;101800;;;19.57429;70.7
70943;BME280;59154;51.970;5.650;2022-07-29T21:35:03;101800;;;19.47257;71.6
70943;BME280;59154;51.970;5.650;2022-07-29T21:40:04;101800;;;19.34541;72.7
70943;BME280;59154;51.970;5.650;2022-07-29T21:45:03;101800;;;19.14706;74.9
70943;BME280;59154;51.970;5.650;2022-07-29T21:50:03;101800;;;19.07585;75.4
70943;BME280;59154;51.970;5.650;2022-07-29T21:55:02;101800;;;19.08094;75.8
70943;BME280;59154;51.970;5.650;2022-07-29T22:00:04;101800;;;19.05042;76.4
70943;BME280;59154;51.970;5.650;2022-07-29T22:05:03;101800;;;18.82155;78.2
70943;BME280;59154;51.970;5.650;2022-07-29T22:10:03;101800;;;18.76051;78.8
70943;BME280;59154;51.970;5.650;2022-07-29T22:15:03;101800;;;18.68931;79.2
70943;BME280;59154;51.970;5.650;2022-07-29T22:20:04;101800;;;18.78594;79.0
70943;BME280;59154;51.970;5.650;2022-07-29T22:25:04;101800;;;18.53164;80.4
70943;BME280;59154;51.970;5.650;2022-07-29T22:30:03;101800;;;18.62319;80.2
70943;BME280;59154;51.970;5.650;2022-07-29T22:35:03;101800;;;18.57233;80.7
70943;BME280;59154;51.970;5.650;2022-07-29T22:40:04;101800;;;18.44009;81.4
70943;BME280;59154;51.970;5.650;2022-07-29T22:45:02;101800;;;18.30786;81.4
70943;BME280;59154;51.970;5.650;2022-07-29T22:50:04;101800;;;18.22139;81.4
70943;BME280;59154;51.970;5.650;2022-07-29T22:55:02;101800;;;18.17053;81.6
70943;BME280;59154;51.970;5.650;2022-07-29T23:00:04;101800;;;18.1451;81.8
70943;BME280;59154;51.970;5.650;2022-07-29T23:05:03;101800;;;17.8908;83.5
70943;BME280;59154;51.970;5.650;2022-07-29T23:10:03;101800;;;17.8196;84.2
70943;BME280;59154;51.970;5.650;2022-07-29T23:15:02;101800;;;17.52461;86.1
70943;BME280;59154;51.970;5.650;2022-07-29T23:20:05;101800;;;17.4534;86.9
70943;BME280;59154;51.970;5.650;2022-07-29T23:25:04;101800;;;17.35168;88.1
70943;BME280;59154;51.970;5.650;2022-07-29T23:30:04;101800;;;17.13299;90.1
70943;BME280;59154;51.970;5.650;2022-07-29T23:35:03;101800;;;17.27031;89.4
70943;BME280;59154;51.970;5.650;2022-07-29T23:40:03;101800;;;17.36186;89.1
70943;BME280;59154;51.970;5.650;2022-07-29T23:45:03;101800;;;17.17876;90.2
70943;BME280;59154;51.970;5.650;2022-07-29T23:50:03;101800;;;17.14316;90.9
70943;BME280;59154;51.970;5.650;2022-07-29T23:55:03;101800;;;17.20419;90.5
